createdAt,value
2017-12-29T00:00:06.698Z,13.47
2017-12-29T00:02:34.283Z,13.03
2017-12-29T00:05:01.922Z,13.20
2017-12-29T00:07:29.499Z,13.87
2017-12-29T00:09:57.319Z,14.17
2017-12-29T00:12:24.946Z,13.67
2017-12-29T00:14:52.521Z,13.10
2017-12-29T00:17:20.202Z,14.03
2017-12-29T00:19:48.068Z,14.50
2017-12-29T00:22:16.486Z,13.60
2017-12-29T00:24:44.116Z,14.40
2017-12-29T00:27:11.720Z,14.20
2017-12-29T00:29:39.340Z,14.70
2017-12-29T00:32:07.204Z,14.23
2017-12-29T00:34:34.788Z,14.00
2017-12-29T00:37:02.424Z,14.33
2017-12-29T00:39:30.008Z,14.27
2017-12-29T00:41:57.627Z,14.60
2017-12-29T00:44:25.202Z,15.07
2017-12-29T00:46:52.772Z,14.57
2017-12-29T00:49:20.650Z,14.63
2017-12-29T00:51:48.517Z,13.83
2017-12-29T00:54:16.147Z,14.17
2017-12-29T00:56:44.052Z,15.03
2017-12-29T00:59:11.640Z,14.50
2017-12-29T01:01:39.242Z,14.57
2017-12-29T01:04:06.813Z,14.73
2017-12-29T01:06:34.600Z,14.07
2017-12-29T01:09:02.168Z,14.20
2017-12-29T01:11:29.749Z,13.93
2017-12-29T01:13:57.361Z,13.10
2017-12-29T01:16:24.948Z,14.10
2017-12-29T01:18:52.605Z,15.27
2017-12-29T01:21:20.186Z,14.00
2017-12-29T01:23:48.030Z,13.73
2017-12-29T01:26:15.657Z,14.00
2017-12-29T01:28:43.254Z,14.30
2017-12-29T01:31:10.860Z,14.50
2017-12-29T01:33:38.439Z,13.60
2017-12-29T01:36:06.022Z,12.77
2017-12-29T01:38:33.905Z,13.73
2017-12-29T01:41:01.767Z,13.10
2017-12-29T01:43:29.387Z,13.00
2017-12-29T01:45:56.973Z,14.47
2017-12-29T01:50:58.491Z,13.70
2017-12-29T01:53:26.067Z,13.10
2017-12-29T01:55:54.822Z,13.87
2017-12-29T01:58:22.415Z,14.47
2017-12-29T02:00:50.000Z,13.70
2017-12-29T02:03:17.616Z,13.47
2017-12-29T02:05:45.280Z,13.20
2017-12-29T02:08:12.904Z,12.90
2017-12-29T02:10:40.491Z,14.20
2017-12-29T02:13:08.101Z,13.20
2017-12-29T02:15:35.705Z,14.00
2017-12-29T02:18:03.286Z,17.80
2017-12-29T02:20:31.240Z,14.90
2017-12-29T02:22:59.110Z,14.03
2017-12-29T02:25:26.737Z,13.17
2017-12-29T02:27:54.346Z,14.20
2017-12-29T02:30:21.928Z,14.17
2017-12-29T02:32:49.559Z,12.87
2017-12-29T02:35:17.437Z,12.83
2017-12-29T02:37:45.035Z,13.00
2017-12-29T02:40:12.653Z,12.73
2017-12-29T02:42:40.246Z,13.27
2017-12-29T02:45:08.479Z,13.30
2017-12-29T02:47:36.180Z,12.30
2017-12-29T02:50:03.818Z,12.47
2017-12-29T02:52:31.785Z,12.50
2017-12-29T02:54:59.647Z,12.80
2017-12-29T02:57:27.292Z,12.23
2017-12-29T02:59:54.879Z,12.40
2017-12-29T03:02:22.475Z,12.93
2017-12-29T03:04:50.125Z,13.50
2017-12-29T03:07:17.712Z,12.17
2017-12-29T03:09:45.340Z,12.73
2017-12-29T03:12:12.943Z,12.53
2017-12-29T03:14:40.550Z,12.67
2017-12-29T03:17:08.176Z,12.27
2017-12-29T03:19:35.781Z,13.23
2017-12-29T03:22:03.391Z,12.93
2017-12-29T03:24:30.986Z,12.47
2017-12-29T03:26:58.592Z,12.63
2017-12-29T03:29:26.226Z,13.30
2017-12-29T03:31:53.812Z,12.83
2017-12-29T03:34:21.431Z,12.50
2017-12-29T03:36:49.023Z,12.70
2017-12-29T03:39:16.648Z,12.60
2017-12-29T03:41:44.282Z,12.40
2017-12-29T03:44:11.866Z,12.30
2017-12-29T03:46:39.498Z,12.03
2017-12-29T03:49:07.096Z,12.67
2017-12-29T03:51:34.692Z,12.90
2017-12-29T03:54:02.332Z,12.70
2017-12-29T03:56:29.912Z,12.03
2017-12-29T03:58:57.528Z,12.60
2017-12-29T04:01:25.112Z,11.90
2017-12-29T04:03:52.686Z,12.50
2017-12-29T04:06:20.292Z,12.90
2017-12-29T04:08:47.876Z,13.30
2017-12-29T04:11:15.496Z,12.40
2017-12-29T04:13:43.065Z,12.67
2017-12-29T04:16:10.647Z,12.20
2017-12-29T04:18:38.257Z,12.47
2017-12-29T04:21:05.854Z,12.00
2017-12-29T04:23:33.500Z,12.47
2017-12-29T04:26:01.064Z,12.13
2017-12-29T04:28:28.652Z,13.57
2017-12-29T04:30:56.269Z,12.50
2017-12-29T04:33:23.846Z,12.37
2017-12-29T04:35:51.495Z,12.57
2017-12-29T04:38:19.363Z,12.00
2017-12-29T04:40:46.956Z,13.23
2017-12-29T04:43:14.564Z,12.47
2017-12-29T04:45:42.498Z,12.97
2017-12-29T04:48:10.121Z,12.53
2017-12-29T04:50:37.699Z,13.20
2017-12-29T04:53:05.307Z,12.67
2017-12-29T04:55:33.200Z,12.70
2017-12-29T04:58:00.797Z,12.30
2017-12-29T05:00:28.436Z,12.93
2017-12-29T05:02:56.291Z,13.60
2017-12-29T05:05:23.876Z,11.70
2017-12-29T05:07:51.818Z,11.73
2017-12-29T05:10:19.412Z,13.30
2017-12-29T05:12:47.032Z,12.77
2017-12-29T05:15:14.708Z,13.00
2017-12-29T05:17:42.336Z,12.50
2017-12-29T05:20:09.950Z,12.47
2017-12-29T05:22:37.538Z,12.20
2017-12-29T05:25:05.467Z,13.10
2017-12-29T05:27:33.047Z,13.37
2017-12-29T05:30:00.627Z,12.50
2017-12-29T05:32:28.237Z,12.50
2017-12-29T05:34:55.880Z,12.70
2017-12-29T05:37:23.541Z,11.63
2017-12-29T05:39:51.126Z,11.93
2017-12-29T05:42:18.803Z,12.67
2017-12-29T05:44:46.412Z,13.17
2017-12-29T05:47:14.328Z,12.67
2017-12-29T05:49:42.196Z,12.53
2017-12-29T05:52:09.779Z,12.80
2017-12-29T05:54:37.629Z,13.57
2017-12-29T05:57:05.331Z,12.20
2017-12-29T05:59:32.959Z,11.90
2017-12-29T06:02:00.919Z,13.97
2017-12-29T06:04:28.540Z,12.87
2017-12-29T06:06:56.118Z,13.57
2017-12-29T06:09:23.762Z,12.10
2017-12-29T06:11:51.359Z,12.73
2017-12-29T06:14:19.012Z,12.70
2017-12-29T06:16:46.639Z,13.30
2017-12-29T06:19:14.215Z,13.77
2017-12-29T06:21:41.795Z,11.87
2017-12-29T06:24:09.696Z,13.10
2017-12-29T06:26:37.351Z,13.10
2017-12-29T06:29:05.049Z,12.97
2017-12-29T06:31:32.647Z,11.97
2017-12-29T06:34:00.219Z,13.20
2017-12-29T06:36:27.863Z,13.20
2017-12-29T06:38:55.443Z,13.13
2017-12-29T06:41:23.067Z,12.80
2017-12-29T06:43:50.649Z,12.80
2017-12-29T06:46:18.251Z,12.83
2017-12-29T06:48:45.881Z,13.00
2017-12-29T06:51:13.785Z,12.47
2017-12-29T06:53:41.407Z,12.83
2017-12-29T06:56:08.987Z,13.50
2017-12-29T06:58:36.614Z,13.13
2017-12-29T07:01:04.244Z,13.30
2017-12-29T07:03:32.193Z,13.07
2017-12-29T07:05:59.857Z,13.13
2017-12-29T07:08:27.448Z,12.77
2017-12-29T07:10:55.027Z,12.33
2017-12-29T07:13:22.656Z,12.40
2017-12-29T07:15:50.261Z,12.27
2017-12-29T07:18:17.893Z,13.50
2017-12-29T07:20:45.481Z,13.13
2017-12-29T07:23:13.060Z,12.87
2017-12-29T07:25:41.007Z,12.10
2017-12-29T07:28:08.587Z,12.20
2017-12-29T07:30:36.232Z,13.03
2017-12-29T07:33:03.825Z,12.40
2017-12-29T07:35:31.539Z,13.13
2017-12-29T07:37:59.169Z,11.87
2017-12-29T07:40:26.763Z,11.87
2017-12-29T07:42:54.385Z,13.10
2017-12-29T07:45:22.014Z,11.93
2017-12-29T07:47:49.591Z,11.97
2017-12-29T07:50:17.195Z,12.20
2017-12-29T07:52:44.793Z,12.63
2017-12-29T07:55:13.911Z,13.10
2017-12-29T07:57:41.587Z,13.17
2017-12-29T08:00:09.183Z,12.50
2017-12-29T08:02:36.832Z,12.70
2017-12-29T08:05:04.420Z,12.27
2017-12-29T08:07:32.073Z,11.40
2017-12-29T08:09:59.659Z,11.90
2017-12-29T08:12:27.296Z,12.80
2017-12-29T08:14:54.893Z,12.60
2017-12-29T08:17:22.470Z,12.20
2017-12-29T08:19:50.129Z,11.83
2017-12-29T08:22:17.731Z,12.00
2017-12-29T08:24:45.320Z,11.33
2017-12-29T08:27:12.998Z,11.63
2017-12-29T08:29:40.573Z,12.37
2017-12-29T08:32:08.219Z,12.10
2017-12-29T08:34:35.883Z,11.77
2017-12-29T08:37:03.454Z,11.90
2017-12-29T08:39:31.078Z,12.07
2017-12-29T08:41:58.659Z,12.30
2017-12-29T08:44:26.347Z,11.80
2017-12-29T08:46:54.048Z,13.13
2017-12-29T08:49:21.626Z,11.77
2017-12-29T08:51:49.241Z,12.30
2017-12-29T08:54:16.867Z,12.30
2017-12-29T08:56:44.476Z,11.77
2017-12-29T08:59:12.069Z,11.87
2017-12-29T09:01:39.831Z,13.17
2017-12-29T09:04:07.801Z,11.43
2017-12-29T09:06:35.653Z,11.97
2017-12-29T09:09:03.328Z,11.50
2017-12-29T09:11:31.194Z,11.57
2017-12-29T09:13:58.773Z,11.07
2017-12-29T09:16:26.723Z,11.60
2017-12-29T09:18:54.303Z,11.37
2017-12-29T09:21:21.928Z,11.90
2017-12-29T09:23:49.503Z,11.30
2017-12-29T09:26:17.369Z,12.10
2017-12-29T09:28:44.975Z,11.47
2017-12-29T09:31:12.901Z,11.53
2017-12-29T09:33:40.512Z,11.70
2017-12-29T09:36:08.133Z,11.67
2017-12-29T09:38:35.999Z,11.10
2017-12-29T09:41:03.608Z,10.90
2017-12-29T09:43:31.241Z,11.83
2017-12-29T09:45:58.867Z,11.70
2017-12-29T09:48:26.448Z,10.77
2017-12-29T09:50:54.276Z,11.73
2017-12-29T09:53:21.983Z,11.43
2017-12-29T09:55:49.555Z,11.33
2017-12-29T09:58:17.192Z,11.60
2017-12-29T10:00:44.779Z,11.23
2017-12-29T10:03:12.380Z,11.40
2017-12-29T10:05:39.993Z,11.07
2017-12-29T10:08:07.856Z,11.60
2017-12-29T10:10:35.504Z,12.20
2017-12-29T10:13:03.383Z,11.30
2017-12-29T10:15:31.959Z,11.47
2017-12-29T10:17:59.833Z,11.90
2017-12-29T10:20:27.451Z,11.53
2017-12-29T10:22:57.203Z,11.80
2017-12-29T10:25:24.908Z,11.00
2017-12-29T10:27:52.584Z,11.90
2017-12-29T10:30:20.192Z,12.27
2017-12-29T10:32:47.783Z,11.33
2017-12-29T10:35:15.727Z,11.73
2017-12-29T10:37:43.326Z,11.60
2017-12-29T10:40:10.908Z,11.60
2017-12-29T10:42:39.020Z,11.57
2017-12-29T10:45:06.609Z,11.63
2017-12-29T10:47:34.546Z,11.07
2017-12-29T10:50:02.195Z,11.27
2017-12-29T10:52:29.909Z,11.00
2017-12-29T10:54:57.868Z,10.83
2017-12-29T10:57:25.485Z,11.80
2017-12-29T10:59:53.127Z,10.67
2017-12-29T11:02:20.743Z,11.17
2017-12-29T11:04:48.376Z,10.53
2017-12-29T11:07:16.040Z,10.57
2017-12-29T11:09:43.634Z,11.10
2017-12-29T11:12:11.273Z,10.57
2017-12-29T11:14:38.883Z,10.73
2017-12-29T11:17:06.817Z,10.50
2017-12-29T11:19:34.784Z,10.73
2017-12-29T11:22:02.411Z,11.03
2017-12-29T11:24:30.076Z,11.10
2017-12-29T11:26:57.979Z,10.40
2017-12-29T11:29:25.851Z,10.13
2017-12-29T11:31:53.466Z,10.50
2017-12-29T11:34:21.609Z,10.60
2017-12-29T11:36:49.250Z,10.00
2017-12-29T11:39:17.115Z,9.93
2017-12-29T11:41:44.729Z,11.10
2017-12-29T11:44:12.648Z,10.60
2017-12-29T11:46:40.513Z,10.73
2017-12-29T11:49:08.166Z,10.70
2017-12-29T11:51:35.776Z,10.10
2017-12-29T11:54:03.372Z,11.00
2017-12-29T11:56:31.014Z,15.30
2017-12-29T11:58:58.803Z,10.47
2017-12-29T12:01:26.544Z,10.67
2017-12-29T12:03:54.208Z,9.70
2017-12-29T12:06:21.860Z,10.80
2017-12-29T12:08:49.517Z,10.77
2017-12-29T12:11:17.151Z,10.67
2017-12-29T12:13:44.847Z,11.00
2017-12-29T12:16:12.800Z,10.47
2017-12-29T12:18:40.664Z,10.87
2017-12-29T12:21:08.420Z,10.50
2017-12-29T12:23:36.147Z,10.10
2017-12-29T12:26:03.779Z,10.50
2017-12-29T12:28:31.711Z,10.60
2017-12-29T12:30:59.296Z,10.33
2017-12-29T12:33:26.931Z,10.87
2017-12-29T12:35:54.510Z,11.30
2017-12-29T12:38:22.141Z,10.37
2017-12-29T12:40:49.739Z,11.30
2017-12-29T12:43:17.319Z,10.20
2017-12-29T12:45:44.954Z,10.87
2017-12-29T12:48:12.554Z,9.80
2017-12-29T12:50:40.188Z,10.13
2017-12-29T12:53:07.786Z,9.93
2017-12-29T12:55:35.395Z,10.13
2017-12-29T12:58:03.016Z,11.40
2017-12-29T13:00:30.617Z,10.57
2017-12-29T13:02:58.235Z,11.10
2017-12-29T13:05:25.818Z,11.50
2017-12-29T13:07:53.434Z,14.60
2017-12-29T13:10:21.058Z,11.77
2017-12-29T13:12:48.929Z,10.77
2017-12-29T13:15:16.899Z,11.47
2017-12-29T13:17:44.474Z,12.47
2017-12-29T13:20:12.097Z,10.27
2017-12-29T13:22:40.103Z,11.57
2017-12-29T13:25:07.693Z,10.27
2017-12-29T13:27:35.627Z,10.50
2017-12-29T13:30:03.493Z,10.63
2017-12-29T13:32:31.075Z,10.80
2017-12-29T13:34:59.019Z,10.63
2017-12-29T13:37:26.892Z,10.00
2017-12-29T13:39:54.471Z,10.17
2017-12-29T13:42:22.096Z,11.03
2017-12-29T13:44:49.671Z,11.20
2017-12-29T13:47:17.253Z,9.73
2017-12-29T13:49:44.868Z,9.80
2017-12-29T13:54:46.372Z,10.13
2017-12-29T13:57:14.231Z,10.20
2017-12-29T13:59:42.102Z,10.47
2017-12-29T14:02:09.733Z,9.87
2017-12-29T14:04:37.634Z,9.97
2017-12-29T14:07:05.220Z,9.80
2017-12-29T14:09:32.844Z,10.33
2017-12-29T14:12:00.424Z,9.97
2017-12-29T14:14:28.041Z,9.93
2017-12-29T14:16:55.951Z,10.03
2017-12-29T14:19:23.564Z,10.30
2017-12-29T14:21:51.254Z,10.63
2017-12-29T14:24:18.876Z,10.27
2017-12-29T14:26:46.531Z,10.37
2017-12-29T14:29:14.112Z,10.27
2017-12-29T14:31:41.683Z,10.20
2017-12-29T14:34:09.336Z,9.80
2017-12-29T14:36:36.929Z,10.23
2017-12-29T14:39:04.572Z,10.20
2017-12-29T14:41:32.193Z,9.70
2017-12-29T14:43:59.776Z,9.90
2017-12-29T14:46:27.388Z,9.33
2017-12-29T14:48:55.004Z,9.80
2017-12-29T14:51:22.625Z,9.83
2017-12-29T14:53:50.268Z,9.87
2017-12-29T14:56:18.150Z,9.70
2017-12-29T14:58:45.769Z,9.97
2017-12-29T15:01:13.384Z,10.47
2017-12-29T15:03:41.000Z,11.03
2017-12-29T15:06:09.302Z,10.47
2017-12-29T15:08:37.048Z,10.17
2017-12-29T15:11:04.951Z,10.10
2017-12-29T15:13:32.551Z,10.27
2017-12-29T15:16:00.215Z,10.20
2017-12-29T15:18:27.808Z,10.93
2017-12-29T15:20:55.393Z,10.17
2017-12-29T15:23:23.013Z,9.67
2017-12-29T15:25:50.616Z,9.40
2017-12-29T15:28:18.236Z,9.70
2017-12-29T15:30:47.891Z,10.37
2017-12-29T15:33:15.471Z,9.90
2017-12-29T15:35:43.083Z,10.70
2017-12-29T15:38:11.419Z,9.50
2017-12-29T15:40:39.964Z,10.70
2017-12-29T15:43:07.784Z,10.30
2017-12-29T15:45:35.367Z,10.63
2017-12-29T15:48:03.056Z,11.10
2017-12-29T15:50:31.658Z,11.10
2017-12-29T15:52:59.271Z,11.00
2017-12-29T15:55:26.855Z,12.40
2017-12-29T15:57:54.542Z,9.90
2017-12-29T16:00:22.732Z,10.90
2017-12-29T16:02:50.942Z,10.47
2017-12-29T16:05:18.759Z,10.13
2017-12-29T16:07:46.624Z,10.27
2017-12-29T16:10:14.262Z,9.77
2017-12-29T16:12:41.851Z,10.00
2017-12-29T16:15:09.906Z,9.80
2017-12-29T16:17:38.220Z,10.90
2017-12-29T16:20:05.850Z,10.50
2017-12-29T16:22:33.512Z,10.70
2017-12-29T16:25:01.177Z,10.43
2017-12-29T16:27:28.779Z,10.23
2017-12-29T16:29:56.395Z,10.90
2017-12-29T16:32:23.974Z,10.63
2017-12-29T16:34:51.651Z,10.63
2017-12-29T16:37:19.275Z,10.30
2017-12-29T16:39:46.856Z,11.87
2017-12-29T16:42:14.474Z,11.03
2017-12-29T16:44:42.642Z,10.30
2017-12-29T16:47:10.256Z,10.40
2017-12-29T16:49:38.564Z,10.63
2017-12-29T16:52:06.149Z,11.70
2017-12-29T16:54:34.017Z,11.10
2017-12-29T16:57:01.593Z,10.57
2017-12-29T16:59:29.501Z,10.27
2017-12-29T17:01:57.365Z,11.90
2017-12-29T17:04:25.497Z,10.70
2017-12-29T17:06:53.139Z,11.00
2017-12-29T17:09:20.762Z,11.30
2017-12-29T17:11:48.417Z,12.50
2017-12-29T17:14:16.021Z,11.53
2017-12-29T17:16:43.647Z,11.10
2017-12-29T17:19:11.320Z,11.70
2017-12-29T17:21:39.175Z,10.87
2017-12-29T17:24:06.807Z,10.80
2017-12-29T17:26:34.656Z,11.20
2017-12-29T17:29:02.256Z,11.40
2017-12-29T17:31:29.881Z,10.93
2017-12-29T17:33:57.486Z,10.53
2017-12-29T17:36:25.185Z,10.67
2017-12-29T17:38:53.135Z,10.50
2017-12-29T17:41:20.779Z,10.23
2017-12-29T17:43:48.376Z,11.00
2017-12-29T17:46:16.320Z,10.70
2017-12-29T17:48:44.292Z,10.23
2017-12-29T17:51:12.175Z,10.17
2017-12-29T17:53:39.767Z,10.50
2017-12-29T17:56:07.379Z,9.90
2017-12-29T17:58:34.977Z,10.53
2017-12-29T18:01:02.597Z,11.03
2017-12-29T18:03:30.179Z,10.37
2017-12-29T18:05:57.775Z,10.10
2017-12-29T18:08:25.420Z,10.20
2017-12-29T18:10:53.882Z,10.47
2017-12-29T18:13:21.511Z,10.57
2017-12-29T18:15:49.123Z,10.57
2017-12-29T18:18:16.967Z,11.00
2017-12-29T18:20:44.590Z,10.00
2017-12-29T18:23:12.293Z,9.83
2017-12-29T18:25:39.914Z,10.27
2017-12-29T18:28:07.536Z,10.80
2017-12-29T18:30:35.132Z,10.97
2017-12-29T18:33:02.894Z,10.00
2017-12-29T18:35:30.521Z,10.70
2017-12-29T18:37:58.180Z,10.60
2017-12-29T18:40:25.786Z,10.60
2017-12-29T18:42:53.406Z,10.30
2017-12-29T18:45:21.069Z,11.00
2017-12-29T18:47:48.652Z,10.67
2017-12-29T18:50:16.284Z,10.53
2017-12-29T18:52:43.879Z,10.17
2017-12-29T18:55:11.847Z,10.67
2017-12-29T18:57:39.572Z,11.00
2017-12-29T19:00:07.354Z,10.60
2017-12-29T19:02:35.482Z,11.03
2017-12-29T19:05:03.180Z,11.33
2017-12-29T19:07:30.845Z,10.60
2017-12-29T19:09:58.505Z,10.67
2017-12-29T19:12:26.477Z,12.00
2017-12-29T19:14:54.126Z,10.63
2017-12-29T19:17:21.741Z,10.20
2017-12-29T19:19:49.354Z,11.33
2017-12-29T19:22:16.987Z,10.83
2017-12-29T19:24:44.891Z,9.67
2017-12-29T19:27:12.540Z,10.73
2017-12-29T19:29:40.135Z,10.97
2017-12-29T19:32:07.808Z,10.53
2017-12-29T19:34:35.453Z,10.87
2017-12-29T19:37:03.072Z,11.27
2017-12-29T19:39:30.734Z,10.40
2017-12-29T19:41:58.336Z,10.47
2017-12-29T19:44:25.965Z,10.07
2017-12-29T19:46:53.638Z,10.70
2017-12-29T19:49:21.240Z,10.70
2017-12-29T19:51:48.952Z,10.73
2017-12-29T19:54:16.584Z,10.87
2017-12-29T19:56:44.172Z,11.93
2017-12-29T19:59:11.842Z,12.37
2017-12-29T20:01:39.445Z,11.90
2017-12-29T20:04:07.093Z,11.20
2017-12-29T20:06:34.731Z,13.40
2017-12-29T20:09:02.618Z,13.93
2017-12-29T20:11:30.273Z,13.10
2017-12-29T20:13:57.876Z,10.80
2017-12-29T20:16:25.514Z,10.67
2017-12-29T20:18:53.148Z,11.00
2017-12-29T20:21:20.756Z,11.50
2017-12-29T20:23:48.396Z,10.93
2017-12-29T20:26:16.012Z,10.47
2017-12-29T20:28:43.673Z,11.20
2017-12-29T20:31:11.304Z,11.30
2017-12-29T20:33:38.928Z,10.53
2017-12-29T20:36:06.562Z,11.60
2017-12-29T20:38:34.186Z,11.63
2017-12-29T20:41:01.892Z,12.20
2017-12-29T20:43:29.503Z,12.00
2017-12-29T20:45:57.100Z,21.00
2017-12-29T20:48:24.746Z,11.50
2017-12-29T20:50:52.390Z,10.73
2017-12-29T20:53:20.014Z,10.60
2017-12-29T20:55:47.631Z,11.33
2017-12-29T20:58:16.251Z,11.23
2017-12-29T21:00:46.534Z,10.53
2017-12-29T21:03:14.131Z,11.10
2017-12-29T21:05:41.858Z,10.40
2017-12-29T21:08:09.563Z,11.43
2017-12-29T21:10:37.439Z,10.80
2017-12-29T21:13:05.065Z,12.10
2017-12-29T21:15:33.956Z,11.50
2017-12-29T21:18:02.010Z,11.53
2017-12-29T21:20:29.727Z,11.23
2017-12-29T21:22:57.386Z,12.20
2017-12-29T21:25:25.013Z,12.20
2017-12-29T21:27:52.603Z,11.93
2017-12-29T21:30:20.261Z,11.33
2017-12-29T21:32:47.860Z,11.80
2017-12-29T21:35:15.431Z,10.80
2017-12-29T21:37:43.052Z,12.10
2017-12-29T21:40:10.651Z,11.20
2017-12-29T21:42:38.303Z,11.83
2017-12-29T21:45:06.184Z,13.17
2017-12-29T21:47:33.860Z,12.07
2017-12-29T21:50:01.471Z,13.10
2017-12-29T21:52:29.089Z,11.90
2017-12-29T21:54:56.727Z,12.20
2017-12-29T21:57:24.356Z,15.13
2017-12-29T21:59:51.973Z,18.60
2017-12-29T22:02:19.578Z,12.10
2017-12-29T22:04:47.176Z,11.80
2017-12-29T22:07:14.819Z,11.73
2017-12-29T22:09:42.620Z,12.20
2017-12-29T22:12:10.209Z,11.80
2017-12-29T22:14:37.843Z,11.60
2017-12-29T22:17:05.497Z,11.30
2017-12-29T22:19:33.487Z,11.60
2017-12-29T22:22:01.648Z,11.57
2017-12-29T22:24:29.243Z,12.63
2017-12-29T22:26:56.987Z,11.53
2017-12-29T22:29:24.702Z,11.37
2017-12-29T22:31:52.442Z,11.93
2017-12-29T22:34:20.427Z,11.33
2017-12-29T22:36:48.366Z,11.27
2017-12-29T22:39:15.972Z,11.67
2017-12-29T22:41:43.573Z,10.90
2017-12-29T22:44:11.219Z,10.70
2017-12-29T22:46:38.809Z,10.63
2017-12-29T22:49:06.414Z,11.37
2017-12-29T22:51:34.075Z,11.43
2017-12-29T22:54:01.653Z,11.07
2017-12-29T22:56:29.548Z,10.97
2017-12-29T22:58:57.405Z,11.33
2017-12-29T23:01:25.133Z,12.37
2017-12-29T23:03:52.838Z,12.20
2017-12-29T23:06:20.481Z,10.83
2017-12-29T23:08:48.123Z,11.10
2017-12-29T23:11:15.723Z,10.70
2017-12-29T23:13:43.429Z,10.53
2017-12-29T23:16:11.040Z,10.50
2017-12-29T23:18:38.657Z,10.30
2017-12-29T23:21:06.289Z,11.77
2017-12-29T23:23:34.019Z,11.00
2017-12-29T23:26:01.646Z,11.27
2017-12-29T23:28:29.276Z,11.07
2017-12-29T23:30:56.869Z,11.87
2017-12-29T23:33:24.522Z,13.13
2017-12-29T23:35:52.134Z,11.17
2017-12-29T23:38:20.023Z,12.47
2017-12-29T23:40:47.681Z,11.83
2017-12-29T23:43:15.370Z,11.73
2017-12-29T23:45:43.428Z,13.77
2017-12-29T23:48:11.039Z,11.17
2017-12-29T23:50:39.065Z,11.10
2017-12-29T23:53:06.726Z,10.80
2017-12-29T23:55:34.298Z,11.40
2017-12-29T23:58:02.368Z,11.37
